createdAt,value
2018-04-16T00:02:18.196Z,56.55
2018-04-16T00:04:46.705Z,56.76
2018-04-16T00:07:15.211Z,57.00
2018-04-16T00:09:43.756Z,57.30
2018-04-16T00:12:12.293Z,57.62
2018-04-16T00:14:40.769Z,57.66
2018-04-16T00:17:09.272Z,57.67
2018-04-16T00:19:37.793Z,57.90
2018-04-16T00:22:06.259Z,58.15
2018-04-16T00:24:34.792Z,58.60
2018-04-16T00:27:03.316Z,58.61
2018-04-16T00:29:31.808Z,58.52
2018-04-16T00:32:05.752Z,58.71
2018-04-16T00:34:39.917Z,58.79
2018-04-16T00:37:13.908Z,58.94
2018-04-16T00:39:48.062Z,58.96
2018-04-16T00:42:22.756Z,59.02
2018-04-16T00:44:56.829Z,58.99
2018-04-16T00:47:30.866Z,59.13
2018-04-16T00:50:04.853Z,59.15
2018-04-16T00:52:38.696Z,59.03
2018-04-16T00:55:12.827Z,59.46
2018-04-16T00:57:46.788Z,59.70
2018-04-16T01:00:20.836Z,59.45
2018-04-16T01:06:00.945Z,59.82
2018-04-16T01:08:35.044Z,59.30
2018-04-16T01:11:08.966Z,59.02
2018-04-16T01:13:43.008Z,59.42
2018-04-16T01:16:16.950Z,59.26
2018-04-16T01:18:51.084Z,59.28
2018-04-16T01:21:25.081Z,59.19
2018-04-16T01:23:59.192Z,59.23
2018-04-16T01:26:33.288Z,59.38
2018-04-16T01:29:07.283Z,59.53
2018-04-16T01:31:41.371Z,59.82
2018-04-16T01:34:15.580Z,59.75
2018-04-16T01:36:49.573Z,60.07
2018-04-16T01:39:23.669Z,61.05
2018-04-16T01:44:56.932Z,60.35
2018-04-16T01:47:31.074Z,60.44
2018-04-16T01:50:05.080Z,60.79
2018-04-16T01:52:39.200Z,60.86
2018-04-16T01:55:13.128Z,60.86
2018-04-16T01:57:47.112Z,60.79
2018-04-16T02:00:21.104Z,60.79
2018-04-16T02:02:55.184Z,61.22
2018-04-16T02:05:29.261Z,61.46
2018-04-16T02:08:03.161Z,61.57
2018-04-16T02:10:37.165Z,60.99
2018-04-16T02:13:11.256Z,60.80
2018-04-16T02:15:45.202Z,60.83
2018-04-16T02:18:19.093Z,60.73
2018-04-16T02:20:53.174Z,60.39
2018-04-16T02:23:27.326Z,60.36
2018-04-16T02:26:01.407Z,60.57
2018-04-16T02:28:35.516Z,60.32
2018-04-16T02:31:09.579Z,60.25
2018-04-16T02:33:43.480Z,60.15
2018-04-16T02:36:17.631Z,60.17
2018-04-16T02:38:51.587Z,60.17
2018-04-16T02:41:25.743Z,60.28
2018-04-16T02:43:59.852Z,60.36
2018-04-16T02:46:33.960Z,60.27
2018-04-16T02:49:07.940Z,60.41
2018-04-16T02:51:42.138Z,60.04
2018-04-16T02:54:16.244Z,60.10
2018-04-16T02:56:50.373Z,59.92
2018-04-16T02:59:24.519Z,59.76
2018-04-16T03:01:58.624Z,59.73
2018-04-16T03:04:32.604Z,59.64
2018-04-16T03:07:06.496Z,59.63
2018-04-16T03:09:40.295Z,59.86
2018-04-16T03:12:14.411Z,59.79
2018-04-16T03:14:48.562Z,59.85
2018-04-16T03:17:22.672Z,59.87
2018-04-16T03:19:56.713Z,60.13
2018-04-16T03:22:30.836Z,59.97
2018-04-16T03:25:04.932Z,60.00
2018-04-16T03:27:39.054Z,60.23
2018-04-16T03:33:18.069Z,60.45
2018-04-16T03:35:52.338Z,60.29
2018-04-16T03:38:26.222Z,60.02
2018-04-16T03:41:00.081Z,59.93
2018-04-16T03:43:34.091Z,59.78
2018-04-16T03:46:08.052Z,59.93
2018-04-16T03:48:42.100Z,59.96
2018-04-16T03:54:09.570Z,60.61
2018-04-16T03:56:38.076Z,60.84
2018-04-16T03:59:06.564Z,60.81
2018-04-16T04:01:35.077Z,61.02
2018-04-16T04:04:03.574Z,61.35
2018-04-16T04:06:32.057Z,61.79
2018-04-16T04:09:00.508Z,61.81
2018-04-16T04:11:29.069Z,61.99
2018-04-16T04:13:57.544Z,61.83
2018-04-16T04:16:26.025Z,62.00
2018-04-16T04:18:54.524Z,62.15
2018-04-16T04:21:23.037Z,62.38
2018-04-16T04:24:03.124Z,62.54
2018-04-16T04:26:43.144Z,62.59
2018-04-16T04:29:23.384Z,62.70
2018-04-16T04:31:51.844Z,62.61
2018-04-16T04:34:20.324Z,62.38
2018-04-16T04:36:48.832Z,62.38
2018-04-16T04:39:17.344Z,62.33
2018-04-16T04:41:45.865Z,61.96
2018-04-16T04:44:14.324Z,61.60
2018-04-16T04:46:42.789Z,61.25
2018-04-16T04:49:11.291Z,60.65
2018-04-16T04:51:39.757Z,60.53
2018-04-16T04:54:08.282Z,60.45
2018-04-16T04:56:36.792Z,60.57
2018-04-16T04:59:05.304Z,60.12
2018-04-16T05:01:33.809Z,59.17
2018-04-16T05:04:02.289Z,58.69
2018-04-16T05:06:30.854Z,58.69
2018-04-16T05:09:00.359Z,58.64
2018-04-16T05:11:28.884Z,58.56
2018-04-16T05:13:58.064Z,58.81
2018-04-16T05:16:26.599Z,57.86
2018-04-16T05:18:55.087Z,58.04
2018-04-16T05:21:23.565Z,57.48
2018-04-16T05:23:53.194Z,56.56
2018-04-16T05:26:21.676Z,55.98
2018-04-16T05:28:50.212Z,55.45
2018-04-16T05:31:18.736Z,54.26
2018-04-16T05:33:47.209Z,53.80
2018-04-16T05:36:15.733Z,53.66
2018-04-16T05:38:44.281Z,53.10
2018-04-16T05:41:12.907Z,52.08
2018-04-16T05:43:41.434Z,51.70
2018-04-16T05:46:09.921Z,51.08
2018-04-16T05:48:38.444Z,50.78
2018-04-16T05:51:06.968Z,50.75
2018-04-16T05:53:35.456Z,49.84
2018-04-16T05:56:03.976Z,50.52
2018-04-16T05:58:32.495Z,50.10
2018-04-16T06:01:00.985Z,50.45
2018-04-16T06:03:29.500Z,50.14
2018-04-16T06:05:57.966Z,50.52
2018-04-16T06:08:26.501Z,50.44
2018-04-16T06:10:55.018Z,49.60
2018-04-16T06:13:23.528Z,49.50
2018-04-16T06:15:51.996Z,49.29
2018-04-16T06:18:20.526Z,49.15
2018-04-16T06:20:49.001Z,49.26
2018-04-16T06:23:17.469Z,49.11
2018-04-16T06:25:46.012Z,48.58
2018-04-16T06:28:14.544Z,48.91
2018-04-16T06:30:43.125Z,48.09
2018-04-16T06:33:11.592Z,48.16
2018-04-16T06:35:40.125Z,47.22
2018-04-16T06:38:08.784Z,47.51
2018-04-16T06:40:37.300Z,48.03
2018-04-16T06:43:05.802Z,47.84
2018-04-16T06:45:34.335Z,47.03
2018-04-16T06:48:02.868Z,46.73
2018-04-16T06:50:31.349Z,45.90
2018-04-16T06:53:01.028Z,44.61
2018-04-16T06:55:29.550Z,44.40
2018-04-16T06:57:58.033Z,44.53
2018-04-16T07:00:26.567Z,44.59
2018-04-16T07:02:55.109Z,42.50
2018-04-16T07:05:23.574Z,42.12
2018-04-16T07:07:52.054Z,40.86
2018-04-16T07:10:20.554Z,41.19
2018-04-16T07:12:49.030Z,41.14
2018-04-16T07:15:17.548Z,41.27
2018-04-16T07:17:46.048Z,40.81
2018-04-16T07:20:14.611Z,40.70
2018-04-16T07:22:43.110Z,40.79
2018-04-16T07:25:11.621Z,40.21
2018-04-16T07:27:40.094Z,40.63
2018-04-16T07:30:08.645Z,40.13
2018-04-16T07:32:37.145Z,39.92
2018-04-16T07:35:06.249Z,39.90
2018-04-16T07:37:34.729Z,40.54
2018-04-16T07:40:03.263Z,39.80
2018-04-16T07:42:31.789Z,39.91
2018-04-16T07:45:00.297Z,40.01
2018-04-16T07:47:28.800Z,40.50
2018-04-16T07:49:57.296Z,40.34
2018-04-16T07:52:25.808Z,40.21
2018-04-16T07:54:54.412Z,40.10
2018-04-16T07:57:22.895Z,39.76
2018-04-16T07:59:51.389Z,40.27
2018-04-16T08:02:19.861Z,40.43
2018-04-16T08:04:48.333Z,40.64
2018-04-16T08:07:16.829Z,41.53
2018-04-16T08:09:45.296Z,40.84
2018-04-16T08:12:13.757Z,40.69
2018-04-16T08:14:42.244Z,40.38
2018-04-16T08:17:10.767Z,40.67
2018-04-16T08:19:39.268Z,40.32
2018-04-16T08:22:07.729Z,40.68
2018-04-16T08:24:36.240Z,41.09
2018-04-16T08:27:04.759Z,41.21
2018-04-16T08:29:33.247Z,40.93
2018-04-16T08:32:01.788Z,41.45
2018-04-16T08:34:30.261Z,41.77
2018-04-16T08:36:58.781Z,41.55
2018-04-16T08:39:27.281Z,42.13
2018-04-16T08:41:55.799Z,42.79
2018-04-16T08:44:24.269Z,43.02
2018-04-16T08:46:52.735Z,43.28
2018-04-16T08:49:21.245Z,43.33
2018-04-16T08:51:49.744Z,43.46
2018-04-16T08:54:18.224Z,43.49
2018-04-16T08:56:46.757Z,42.50
2018-04-16T08:59:15.240Z,42.79
2018-04-16T09:01:43.795Z,43.15
2018-04-16T09:04:12.281Z,42.73
2018-04-16T09:06:40.787Z,42.94
2018-04-16T09:09:09.288Z,42.84
2018-04-16T09:11:37.823Z,42.53
2018-04-16T09:14:06.387Z,42.46
2018-04-16T09:16:34.870Z,41.94
2018-04-16T09:19:03.379Z,41.21
2018-04-16T09:21:31.850Z,40.37
2018-04-16T09:24:00.333Z,40.97
2018-04-16T09:26:28.796Z,40.49
2018-04-16T09:28:57.274Z,40.97
2018-04-16T09:31:25.845Z,41.41
2018-04-16T09:33:54.339Z,40.73
2018-04-16T09:36:22.860Z,40.88
2018-04-16T09:38:51.360Z,40.39
2018-04-16T09:41:19.837Z,40.57
2018-04-16T09:43:48.342Z,40.50
2018-04-16T09:46:16.854Z,40.20
2018-04-16T09:48:45.324Z,40.05
2018-04-16T09:51:13.852Z,39.72
2018-04-16T09:53:42.357Z,39.63
2018-04-16T09:56:10.866Z,39.48
2018-04-16T09:58:39.321Z,38.67
2018-04-16T10:01:13.412Z,37.08
2018-04-16T10:03:41.879Z,36.87
2018-04-16T10:06:10.353Z,36.95
2018-04-16T10:08:38.832Z,37.14
2018-04-16T10:11:07.321Z,36.64
2018-04-16T10:13:36.725Z,36.87
2018-04-16T10:16:05.229Z,35.99
2018-04-16T10:18:33.697Z,36.15
2018-04-16T10:21:02.228Z,35.67
2018-04-16T10:23:30.690Z,35.64
2018-04-16T10:25:59.250Z,36.45
2018-04-16T10:28:27.709Z,36.20
2018-04-16T10:30:56.348Z,35.77
2018-04-16T10:33:24.900Z,35.90
2018-04-16T10:35:53.406Z,35.09
2018-04-16T10:38:21.904Z,35.45
2018-04-16T10:40:50.425Z,34.57
2018-04-16T10:43:18.909Z,34.26
2018-04-16T10:45:47.377Z,34.56
2018-04-16T10:48:15.912Z,34.79
2018-04-16T10:50:44.456Z,34.85
2018-04-16T10:53:12.921Z,35.08
2018-04-16T10:55:41.509Z,35.28
2018-04-16T10:58:09.976Z,34.28
2018-04-16T11:00:38.609Z,34.58
2018-04-16T11:03:07.214Z,34.19
2018-04-16T11:05:35.701Z,33.68
2018-04-16T11:08:04.227Z,33.85
2018-04-16T11:10:32.748Z,34.01
2018-04-16T11:13:01.210Z,33.94
2018-04-16T11:15:29.720Z,34.11
2018-04-16T11:17:58.240Z,33.82
2018-04-16T11:20:26.705Z,34.10
2018-04-16T11:22:55.240Z,33.18
2018-04-16T11:25:23.720Z,33.50
2018-04-16T11:27:52.248Z,34.04
2018-04-16T11:30:20.748Z,33.82
2018-04-16T11:32:49.213Z,33.16
2018-04-16T11:35:17.740Z,33.70
2018-04-16T11:37:46.876Z,33.79
2018-04-16T11:40:15.376Z,33.83
2018-04-16T11:42:43.853Z,33.82
2018-04-16T11:45:12.395Z,34.21
2018-04-16T11:47:40.846Z,33.35
2018-04-16T11:50:09.335Z,34.31
2018-04-16T11:52:37.893Z,33.51
2018-04-16T11:55:06.355Z,33.72
2018-04-16T11:57:34.961Z,33.05
2018-04-16T12:00:03.491Z,33.05
2018-04-16T12:02:32.172Z,32.83
2018-04-16T12:05:00.679Z,33.27
2018-04-16T12:07:29.204Z,32.92
2018-04-16T12:09:57.656Z,33.23
2018-04-16T12:12:26.158Z,33.28
2018-04-16T12:14:54.634Z,32.98
2018-04-16T12:17:23.326Z,33.53
2018-04-16T12:19:51.841Z,33.07
2018-04-16T12:22:20.441Z,32.99
2018-04-16T12:24:48.961Z,32.64
2018-04-16T12:27:17.420Z,33.24
2018-04-16T12:29:45.896Z,33.14
2018-04-16T12:32:14.405Z,33.48
2018-04-16T12:34:42.887Z,33.58
2018-04-16T12:37:11.377Z,33.28
2018-04-16T12:39:39.832Z,33.58
2018-04-16T12:42:08.340Z,33.89
2018-04-16T12:44:36.805Z,34.26
2018-04-16T12:47:05.307Z,33.83
2018-04-16T12:49:33.805Z,33.99
2018-04-16T12:52:02.269Z,34.47
2018-04-16T12:54:30.784Z,34.76
2018-04-16T12:56:59.269Z,34.48
2018-04-16T12:59:27.764Z,34.85
2018-04-16T13:01:56.292Z,34.40
2018-04-16T13:04:24.845Z,34.51
2018-04-16T13:06:53.309Z,34.57
2018-04-16T13:09:22.457Z,34.70
2018-04-16T13:11:50.948Z,35.27
2018-04-16T13:14:19.385Z,35.45
2018-04-16T13:16:47.888Z,35.86
2018-04-16T13:19:16.385Z,35.43
2018-04-16T13:21:44.909Z,35.11
2018-04-16T13:24:14.159Z,34.69
2018-04-16T13:26:42.621Z,34.42
2018-04-16T13:29:11.125Z,34.16
2018-04-16T13:31:39.630Z,34.16
2018-04-16T13:34:08.126Z,34.40
2018-04-16T13:36:36.589Z,34.85
2018-04-16T13:39:05.128Z,34.34
2018-04-16T13:41:33.637Z,34.07
2018-04-16T13:44:02.153Z,34.50
2018-04-16T13:46:30.657Z,34.82
2018-04-16T13:48:59.172Z,34.55
2018-04-16T13:51:27.698Z,34.80
2018-04-16T13:53:56.156Z,34.61
2018-04-16T13:56:24.672Z,34.39
2018-04-16T13:58:53.162Z,34.37
2018-04-16T14:01:21.695Z,34.30
2018-04-16T14:03:50.229Z,34.70
2018-04-16T14:06:18.725Z,34.88
2018-04-16T14:08:47.184Z,34.65
2018-04-16T14:11:15.752Z,34.25
2018-04-16T14:13:44.220Z,34.15
2018-04-16T14:16:12.774Z,34.38
2018-04-16T14:18:41.260Z,34.17
2018-04-16T14:21:09.754Z,34.63
2018-04-16T14:23:38.249Z,34.67
2018-04-16T14:26:06.716Z,35.17
2018-04-16T14:28:35.208Z,35.43
2018-04-16T14:31:03.692Z,35.45
2018-04-16T14:33:32.208Z,35.36
2018-04-16T14:36:00.693Z,35.56
2018-04-16T14:38:29.194Z,35.89
2018-04-16T14:40:57.703Z,35.70
2018-04-16T14:43:26.185Z,36.12
2018-04-16T14:45:54.675Z,36.26
2018-04-16T14:48:23.129Z,36.53
2018-04-16T14:50:51.635Z,36.76
2018-04-16T14:53:20.121Z,36.61
2018-04-16T14:55:48.671Z,36.82
2018-04-16T14:58:17.140Z,37.29
2018-04-16T15:00:45.593Z,38.54
2018-04-16T15:03:14.127Z,38.97
2018-04-16T15:05:42.586Z,39.25
2018-04-16T15:08:11.043Z,39.49
2018-04-16T15:10:39.544Z,39.91
2018-04-16T15:13:08.044Z,39.61
2018-04-16T15:15:36.492Z,40.06
2018-04-16T15:18:05.057Z,40.31
2018-04-16T15:20:33.552Z,40.68
2018-04-16T15:23:02.025Z,40.17
2018-04-16T15:25:30.516Z,40.38
2018-04-16T15:27:59.010Z,40.31
2018-04-16T15:30:27.482Z,40.27
2018-04-16T15:32:55.976Z,40.30
2018-04-16T15:35:24.431Z,40.43
2018-04-16T15:37:52.932Z,40.47
2018-04-16T15:40:21.384Z,41.50
2018-04-16T15:42:49.884Z,40.33
2018-04-16T15:45:18.377Z,40.46
2018-04-16T15:47:46.876Z,40.71
2018-04-16T15:50:15.324Z,41.03
2018-04-16T15:52:43.841Z,40.95
2018-04-16T15:55:12.341Z,40.84
2018-04-16T15:57:40.805Z,40.90
2018-04-16T16:00:09.315Z,41.38
2018-04-16T16:02:37.818Z,41.10
2018-04-16T16:05:06.323Z,41.22
2018-04-16T16:07:34.759Z,41.20
2018-04-16T16:10:03.241Z,40.90
2018-04-16T16:12:31.724Z,40.97
2018-04-16T16:15:00.172Z,41.31
2018-04-16T16:17:28.679Z,41.51
2018-04-16T16:19:57.133Z,41.65
2018-04-16T16:22:25.598Z,41.51
2018-04-16T16:24:54.085Z,41.49
2018-04-16T16:27:22.561Z,41.43
2018-04-16T16:29:51.016Z,42.30
2018-04-16T16:32:19.507Z,42.90
2018-04-16T16:34:47.962Z,42.21
2018-04-16T16:37:16.447Z,42.22
2018-04-16T16:39:44.932Z,42.58
2018-04-16T16:42:13.382Z,42.61
2018-04-16T16:44:41.868Z,43.35
2018-04-16T16:47:10.325Z,43.87
2018-04-16T16:49:38.829Z,44.02
2018-04-16T16:52:07.297Z,44.29
2018-04-16T16:54:35.806Z,44.39
2018-04-16T16:57:04.333Z,45.01
2018-04-16T16:59:32.893Z,45.23
2018-04-16T17:02:01.388Z,45.41
2018-04-16T17:04:29.857Z,45.82
2018-04-16T17:06:58.352Z,45.65
2018-04-16T17:09:26.807Z,45.99
2018-04-16T17:11:55.308Z,46.13
2018-04-16T17:14:23.829Z,46.01
2018-04-16T17:16:52.283Z,46.18
2018-04-16T17:19:20.772Z,45.83
2018-04-16T17:21:49.213Z,45.75
2018-04-16T17:24:17.695Z,46.08
2018-04-16T17:26:46.201Z,45.94
2018-04-16T17:29:14.656Z,46.18
2018-04-16T17:31:43.164Z,46.33
2018-04-16T17:34:11.629Z,46.42
2018-04-16T17:36:40.083Z,46.88
2018-04-16T17:39:08.591Z,47.01
2018-04-16T17:41:37.050Z,47.29
2018-04-16T17:44:05.508Z,47.44
2018-04-16T17:46:34.009Z,47.89
2018-04-16T17:49:02.464Z,48.49
2018-04-16T17:51:30.955Z,48.30
2018-04-16T17:53:59.426Z,49.08
2018-04-16T17:56:27.920Z,49.04
2018-04-16T17:58:56.415Z,50.46
2018-04-16T18:01:24.904Z,51.05
2018-04-16T18:03:53.392Z,51.81
2018-04-16T18:06:21.846Z,51.92
2018-04-16T18:08:50.340Z,52.12
2018-04-16T18:11:18.846Z,52.95
2018-04-16T18:13:47.318Z,53.13
2018-04-16T18:16:15.812Z,54.46
2018-04-16T18:18:44.349Z,54.82
2018-04-16T18:21:12.854Z,55.54
2018-04-16T18:23:41.356Z,55.19
2018-04-16T18:26:09.877Z,55.15
2018-04-16T18:28:38.337Z,56.21
2018-04-16T18:31:06.798Z,56.47
2018-04-16T18:33:35.293Z,57.07
2018-04-16T18:36:03.821Z,57.73
2018-04-16T18:38:33.082Z,56.66
2018-04-16T18:41:01.540Z,56.20
2018-04-16T18:43:30.036Z,56.32
2018-04-16T18:45:58.502Z,56.25
2018-04-16T18:48:26.996Z,56.15
2018-04-16T18:50:55.480Z,56.70
2018-04-16T18:53:23.995Z,58.57
2018-04-16T18:55:52.496Z,59.26
2018-04-16T18:58:21.000Z,60.50
2018-04-16T19:00:49.462Z,60.29
2018-04-16T19:03:17.920Z,60.92
2018-04-16T19:05:46.424Z,61.37
2018-04-16T19:08:14.901Z,61.49
2018-04-16T19:10:43.400Z,60.36
2018-04-16T19:13:11.911Z,61.82
2018-04-16T19:15:40.396Z,61.14
2018-04-16T19:18:08.900Z,61.64
2018-04-16T19:20:42.840Z,61.93
2018-04-16T19:23:11.339Z,61.93
2018-04-16T19:25:39.806Z,64.54
2018-04-16T19:28:13.809Z,64.84
2018-04-16T19:30:42.277Z,63.88
2018-04-16T19:33:16.185Z,65.00
2018-04-16T19:35:44.684Z,64.66
2018-04-16T19:38:13.161Z,64.15
2018-04-16T19:40:41.671Z,63.85
2018-04-16T19:43:10.128Z,64.10
2018-04-16T19:45:38.584Z,64.85
2018-04-16T19:48:07.049Z,65.28
2018-04-16T19:50:35.560Z,65.70
2018-04-16T19:53:04.032Z,65.99
2018-04-16T19:55:38.019Z,66.29
2018-04-16T19:58:12.124Z,66.30
2018-04-16T20:00:40.582Z,65.48
2018-04-16T20:03:14.556Z,64.82
2018-04-16T20:05:43.036Z,65.48
2018-04-16T20:08:11.533Z,64.89
2018-04-16T20:10:40.032Z,63.79
2018-04-16T20:13:08.496Z,63.43
2018-04-16T20:15:36.984Z,63.77
2018-04-16T20:18:05.455Z,63.93
2018-04-16T20:20:33.952Z,63.81
2018-04-16T20:23:02.443Z,64.27
2018-04-16T20:25:30.990Z,65.12
2018-04-16T20:27:59.440Z,65.13
2018-04-16T20:30:27.898Z,65.37
2018-04-16T20:32:56.386Z,65.60
2018-04-16T20:35:24.856Z,65.66
2018-04-16T20:37:53.353Z,65.96
2018-04-16T20:40:21.808Z,65.96
2018-04-16T20:42:50.293Z,65.63
2018-04-16T20:45:18.752Z,65.92
2018-04-16T20:47:47.248Z,65.93
2018-04-16T20:50:15.742Z,65.94
2018-04-16T20:52:44.241Z,66.43
2018-04-16T20:55:12.732Z,66.02
2018-04-16T20:57:41.189Z,66.28
2018-04-16T21:00:09.680Z,65.99
2018-04-16T21:02:38.128Z,66.06
2018-04-16T21:05:06.622Z,66.33
2018-04-16T21:07:35.073Z,66.33
2018-04-16T21:10:03.657Z,66.21
2018-04-16T21:12:32.164Z,66.26
2018-04-16T21:15:00.651Z,66.42
2018-04-16T21:17:29.096Z,66.46
2018-04-16T21:19:57.588Z,66.28
2018-04-16T21:22:26.044Z,66.42
2018-04-16T21:24:54.529Z,66.79
2018-04-16T21:27:23.017Z,66.67
2018-04-16T21:29:51.473Z,66.91
2018-04-16T21:32:19.962Z,66.98
2018-04-16T21:34:48.413Z,66.91
2018-04-16T21:37:16.899Z,67.09
2018-04-16T21:39:45.349Z,67.17
2018-04-16T21:42:13.858Z,67.19
2018-04-16T21:44:42.316Z,66.80
2018-04-16T21:47:10.817Z,66.50
2018-04-16T21:49:39.284Z,66.59
2018-04-16T21:52:07.734Z,65.64
2018-04-16T21:54:36.254Z,65.29
2018-04-16T21:57:04.715Z,64.54
2018-04-16T21:59:33.217Z,64.25
2018-04-16T22:02:01.704Z,63.89
2018-04-16T22:04:30.188Z,63.83
2018-04-16T22:06:58.674Z,63.90
2018-04-16T22:09:27.128Z,63.78
2018-04-16T22:11:55.621Z,63.77
2018-04-16T22:14:24.064Z,64.12
2018-04-16T22:16:52.525Z,64.16
2018-04-16T22:19:21.016Z,64.31
2018-04-16T22:21:49.500Z,64.10
2018-04-16T22:24:17.971Z,64.65
2018-04-16T22:26:46.496Z,65.14
2018-04-16T22:29:15.020Z,65.42
2018-04-16T22:31:43.480Z,64.82
2018-04-16T22:34:11.952Z,64.92
2018-04-16T22:36:40.458Z,65.42
2018-04-16T22:39:08.945Z,64.36
2018-04-16T22:41:37.399Z,64.44
2018-04-16T22:44:05.916Z,64.31
2018-04-16T22:46:34.369Z,63.41
2018-04-16T22:49:02.870Z,63.63
2018-04-16T22:51:31.336Z,62.92
2018-04-16T22:53:59.788Z,62.82
2018-04-16T22:56:28.280Z,62.35
2018-04-16T22:58:56.728Z,61.91
2018-04-16T23:01:25.309Z,61.89
2018-04-16T23:03:53.769Z,61.66
2018-04-16T23:06:22.234Z,62.00
2018-04-16T23:08:50.725Z,62.30
2018-04-16T23:11:19.214Z,63.69
2018-04-16T23:13:47.689Z,64.02
2018-04-16T23:16:16.212Z,63.83
2018-04-16T23:18:44.702Z,63.94
2018-04-16T23:21:13.161Z,64.06
2018-04-16T23:23:41.681Z,64.11
2018-04-16T23:26:10.141Z,64.25
2018-04-16T23:28:38.680Z,65.18
2018-04-16T23:31:07.148Z,66.01
2018-04-16T23:33:35.699Z,66.28
2018-04-16T23:36:04.176Z,66.97
2018-04-16T23:38:32.636Z,67.38
2018-04-16T23:41:01.141Z,68.06
2018-04-16T23:43:29.595Z,67.96
2018-04-16T23:45:58.118Z,67.83
2018-04-16T23:48:26.610Z,67.91
2018-04-16T23:50:55.062Z,67.56
2018-04-16T23:53:23.532Z,67.82
2018-04-16T23:55:52.033Z,67.79
2018-04-16T23:58:20.621Z,68.27
